Time;durP1;ratioP1;P1;durP2;ratioP2;P2;SDS_P1;SDS_P2;PMS_P1;PMS_P2;Temp;Humidity;BMP_temperature;BMP_pressure;BME280_temperature;BME280_humidity;BME280_pressure;Samples;Min_cycle;Max_cycle;Signal;HPM_P1;HPM_P2
2021/01/25 00:01:23;;;;;;;17.97;12.37;;;;;;;;;;5044926;28;20212;-68
2021/01/25 00:03:48;;;;;;;17.60;11.73;;;;;;;;;;5050439;28;20204;-68
2021/01/25 00:06:13;;;;;;;15.77;11.17;;;;;;;;;;5046726;28;20281;-68
2021/01/25 00:08:38;;;;;;;17.03;10.83;;;;;;;;;;5050539;28;20219;-68
2021/01/25 00:11:04;;;;;;;14.97;9.93;;;;;;;;;;5053214;28;20680;-68
2021/01/25 00:13:29;;;;;;;16.47;10.13;;;;;;;;;;5050869;28;20213;-67
2021/01/25 00:15:54;;;;;;;15.73;10.30;;;;;;;;;;5052721;28;20271;-68
2021/01/25 00:18:19;;;;;;;13.70;9.80;;;;;;;;;;5054807;28;20184;-67
2021/01/25 00:20:44;;;;;;;16.23;10.60;;;;;;;;;;5050350;28;20181;-66
2021/01/25 00:23:09;;;;;;;20.03;11.03;;;;;;;;;;5047083;28;20209;-66
2021/01/25 00:25:35;;;;;;;17.57;10.80;;;;;;;;;;5052293;28;20560;-66
2021/01/25 00:28:00;;;;;;;15.27;11.70;;;;;;;;;;5054195;28;20184;-67
2021/01/25 00:30:25;;;;;;;17.10;12.27;;;;;;;;;;5049471;28;20296;-67
2021/01/25 00:32:50;;;;;;;17.30;12.27;;;;;;;;;;5052374;28;20578;-68
2021/01/25 00:35:16;;;;;;;21.70;13.47;;;;;;;;;;5051856;28;20230;-67
2021/01/25 00:37:41;;;;;;;17.00;12.20;;;;;;;;;;5051696;28;20227;-68
2021/01/25 00:40:07;;;;;;;20.27;13.97;;;;;;;;;;5046578;28;20204;-68
2021/01/25 00:42:33;;;;;;;16.97;12.10;;;;;;;;;;5055051;28;20234;-68
2021/01/25 00:44:58;;;;;;;21.57;13.13;;;;;;;;;;5049424;28;20679;-68
2021/01/25 00:47:23;;;;;;;19.77;12.07;;;;;;;;;;5050606;28;20177;-68
2021/01/25 00:49:48;;;;;;;19.57;12.30;;;;;;;;;;5049725;28;20177;-68
2021/01/25 00:52:14;;;;;;;18.27;12.63;;;;;;;;;;5050512;28;20874;-68
2021/01/25 00:54:39;;;;;;;16.33;12.07;;;;;;;;;;5049653;28;20198;-68
2021/01/25 00:57:04;;;;;;;19.80;11.77;;;;;;;;;;5050846;28;20177;-67
2021/01/25 00:59:29;;;;;;;14.97;11.67;;;;;;;;;;5050848;28;20189;-68
2021/01/25 01:01:54;;;;;;;22.17;12.70;;;;;;;;;;5047259;28;20209;-69
2021/01/25 01:04:20;;;;;;;17.83;13.23;;;;;;;;;;5048058;28;20300;-69
2021/01/25 01:06:45;;;;;;;18.23;12.97;;;;;;;;;;5047812;28;20181;-68
2021/01/25 01:09:10;;;;;;;15.67;11.20;;;;;;;;;;5049515;28;20659;-68
2021/01/25 01:11:35;;;;;;;20.10;12.50;;;;;;;;;;5054293;28;20173;-68
2021/01/25 01:14:01;;;;;;;18.13;12.70;;;;;;;;;;5049965;28;20220;-68
2021/01/25 01:16:26;;;;;;;19.27;12.40;;;;;;;;;;5056217;28;20292;-67
2021/01/25 01:18:51;;;;;;;19.43;13.07;;;;;;;;;;5050512;28;20185;-66
2021/01/25 01:21:17;;;;;;;19.00;12.53;;;;;;;;;;5049572;28;20315;-66
2021/01/25 01:23:42;;;;;;;21.73;14.17;;;;;;;;;;5052893;28;20308;-66
2021/01/25 01:26:07;;;;;;;17.60;13.10;;;;;;;;;;5049077;28;20181;-66
2021/01/25 01:28:32;;;;;;;22.33;14.37;;;;;;;;;;5051347;28;20180;-66
2021/01/25 01:30:57;;;;;;;19.10;13.47;;;;;;;;;;5051439;28;20169;-67
2021/01/25 01:33:22;;;;;;;18.07;14.23;;;;;;;;;;5048468;28;20205;-66
2021/01/25 01:35:48;;;;;;;19.27;13.70;;;;;;;;;;5046369;28;20181;-66
2021/01/25 01:38:13;;;;;;;20.57;13.53;;;;;;;;;;5050670;28;20176;-67
2021/01/25 01:40:38;;;;;;;23.47;14.23;;;;;;;;;;5048476;28;20169;-67
2021/01/25 01:43:03;;;;;;;22.03;13.73;;;;;;;;;;5050329;28;20840;-67
2021/01/25 01:45:28;;;;;;;22.37;13.43;;;;;;;;;;5048609;28;20196;-66
2021/01/25 01:47:54;;;;;;;19.53;13.77;;;;;;;;;;5047775;28;20177;-67
2021/01/25 01:50:19;;;;;;;17.00;12.90;;;;;;;;;;5051536;28;20176;-67
2021/01/25 01:52:46;;;;;;;17.63;11.63;;;;;;;;;;5045995;28;20178;-67
2021/01/25 01:55:12;;;;;;;17.83;13.10;;;;;;;;;;5047659;28;20189;-67
2021/01/25 01:57:37;;;;;;;19.30;13.27;;;;;;;;;;5055078;28;20659;-67
2021/01/25 02:00:04;;;;;;;16.43;11.27;;;;;;;;;;5056428;28;20500;-67
2021/01/25 02:02:29;;;;;;;16.93;10.67;;;;;;;;;;5047299;28;20202;-67
2021/01/25 02:04:54;;;;;;;16.53;10.20;;;;;;;;;;5055114;28;20600;-66
2021/01/25 02:07:20;;;;;;;14.03;9.83;;;;;;;;;;5048670;28;20256;-67
2021/01/25 02:09:46;;;;;;;13.17;9.67;;;;;;;;;;5050503;28;20170;-67
2021/01/25 02:12:12;;;;;;;14.03;9.73;;;;;;;;;;5052500;28;20189;-67
2021/01/25 02:14:38;;;;;;;18.77;10.10;;;;;;;;;;5051703;28;20260;-67
2021/01/25 02:17:04;;;;;;;14.17;10.20;;;;;;;;;;5049752;28;20646;-67
2021/01/25 02:19:34;;;;;;;17.33;10.90;;;;;;;;;;5046856;28;20257;-67
2021/01/25 02:22:07;;;;;;;14.63;10.30;;;;;;;;;;5049272;28;20216;-67
2021/01/25 02:24:35;;;;;;;12.87;9.63;;;;;;;;;;5040788;28;20213;-67
2021/01/25 02:27:03;;;;;;;14.23;10.03;;;;;;;;;;5053666;28;20182;-67
2021/01/25 02:29:28;;;;;;;14.37;10.53;;;;;;;;;;5031627;28;20189;-66
2021/01/25 02:31:54;;;;;;;12.23;9.27;;;;;;;;;;5049406;28;20177;-67
2021/01/25 02:34:20;;;;;;;15.43;10.57;;;;;;;;;;5047882;28;20211;-67
2021/01/25 02:36:45;;;;;;;15.57;10.33;;;;;;;;;;5049358;28;20208;-68
2021/01/25 02:39:11;;;;;;;14.00;10.20;;;;;;;;;;5049359;28;20186;-67
2021/01/25 02:41:36;;;;;;;17.50;11.60;;;;;;;;;;5048633;28;20209;-68
2021/01/25 02:44:02;;;;;;;15.30;9.63;;;;;;;;;;5049006;28;20198;-67
2021/01/25 02:46:28;;;;;;;13.10;9.97;;;;;;;;;;5047603;28;20182;-67
2021/01/25 02:48:53;;;;;;;15.87;10.43;;;;;;;;;;5049137;28;20311;-67
2021/01/25 02:51:18;;;;;;;15.90;10.97;;;;;;;;;;5047985;28;20181;-67
2021/01/25 02:53:43;;;;;;;13.90;10.17;;;;;;;;;;5047340;28;20332;-67
2021/01/25 02:56:09;;;;;;;14.87;9.80;;;;;;;;;;5046861;28;20220;-67
2021/01/25 02:58:35;;;;;;;15.43;10.87;;;;;;;;;;5047731;28;20193;-67
2021/01/25 03:01:00;;;;;;;16.70;10.20;;;;;;;;;;5049187;28;20173;-67
2021/01/25 03:03:26;;;;;;;16.17;10.97;;;;;;;;;;5050282;28;20728;-67
2021/01/25 03:05:51;;;;;;;17.33;11.60;;;;;;;;;;5052961;28;20219;-67
2021/01/25 03:08:17;;;;;;;16.70;10.20;;;;;;;;;;5050026;28;20176;-67
2021/01/25 03:10:42;;;;;;;14.07;10.73;;;;;;;;;;5047990;28;20181;-67
2021/01/25 03:13:07;;;;;;;14.80;11.40;;;;;;;;;;5052768;28;20670;-66
2021/01/25 03:15:34;;;;;;;16.20;11.30;;;;;;;;;;5045431;28;20655;-67
2021/01/25 03:17:59;;;;;;;15.57;11.43;;;;;;;;;;5052430;28;20213;-67
2021/01/25 03:20:24;;;;;;;17.00;11.70;;;;;;;;;;5042021;28;20581;-67
2021/01/25 03:22:49;;;;;;;17.77;12.17;;;;;;;;;;5050048;28;20546;-66
2021/01/25 03:25:14;;;;;;;15.60;11.30;;;;;;;;;;5050697;28;20229;-67
2021/01/25 03:27:40;;;;;;;18.60;12.33;;;;;;;;;;5054765;28;20174;-67
2021/01/25 03:30:07;;;;;;;15.00;11.57;;;;;;;;;;5052031;28;20303;-67
2021/01/25 03:32:32;;;;;;;19.27;11.77;;;;;;;;;;5053020;28;20272;-66
2021/01/25 03:34:57;;;;;;;17.17;12.50;;;;;;;;;;5051835;28;20272;-67
2021/01/25 03:37:22;;;;;;;16.77;13.07;;;;;;;;;;5049680;28;20197;-67
2021/01/25 03:39:47;;;;;;;17.83;12.90;;;;;;;;;;5057777;28;20178;-67
2021/01/25 03:42:12;;;;;;;18.13;13.43;;;;;;;;;;5035045;28;20223;-66
2021/01/25 03:44:38;;;;;;;21.50;14.37;;;;;;;;;;5050583;28;20193;-66
2021/01/25 03:47:03;;;;;;;17.40;13.40;;;;;;;;;;5051800;28;20178;-66
2021/01/25 03:49:28;;;;;;;20.90;12.37;;;;;;;;;;5052389;28;20183;-67
2021/01/25 03:51:53;;;;;;;18.80;12.97;;;;;;;;;;5053927;28;20173;-67
2021/01/25 03:54:18;;;;;;;20.30;13.23;;;;;;;;;;5034728;28;20292;-66
2021/01/25 03:56:44;;;;;;;17.83;13.03;;;;;;;;;;5048346;28;20178;-67
2021/01/25 03:59:09;;;;;;;17.87;13.33;;;;;;;;;;5055021;28;20207;-66
2021/01/25 04:01:34;;;;;;;22.37;13.50;;;;;;;;;;5050468;28;20666;-66
2021/01/25 04:03:59;;;;;;;19.87;14.03;;;;;;;;;;5051587;28;20232;-67
2021/01/25 04:06:24;;;;;;;22.00;14.27;;;;;;;;;;5049881;28;20524;-67
2021/01/25 04:08:50;;;;;;;21.63;14.67;;;;;;;;;;5051049;28;20583;-67
2021/01/25 04:11:15;;;;;;;21.13;14.03;;;;;;;;;;5052253;28;20181;-67
2021/01/25 04:13:41;;;;;;;18.30;13.33;;;;;;;;;;5050252;28;20190;-66
2021/01/25 04:16:06;;;;;;;25.53;14.33;;;;;;;;;;5054460;28;20181;-67
2021/01/25 04:18:31;;;;;;;24.20;14.37;;;;;;;;;;5052326;28;20170;-66
2021/01/25 04:20:56;;;;;;;19.97;13.77;;;;;;;;;;5031848;28;20686;-67
2021/01/25 04:23:22;;;;;;;22.57;14.20;;;;;;;;;;5051597;28;20587;-66
2021/01/25 04:25:47;;;;;;;22.43;14.37;;;;;;;;;;5052774;28;20180;-67
2021/01/25 04:28:12;;;;;;;24.20;14.70;;;;;;;;;;5049752;28;20674;-66
2021/01/25 04:30:37;;;;;;;18.83;14.13;;;;;;;;;;5051292;28;20647;-67
2021/01/25 04:33:02;;;;;;;22.70;14.83;;;;;;;;;;5050694;28;20236;-67
2021/01/25 04:35:28;;;;;;;19.47;13.00;;;;;;;;;;5050669;28;20177;-67
2021/01/25 04:37:53;;;;;;;20.53;14.63;;;;;;;;;;5052320;28;20184;-69
2021/01/25 04:40:18;;;;;;;20.77;14.87;;;;;;;;;;5053453;28;20192;-66
2021/01/25 04:42:44;;;;;;;20.30;14.77;;;;;;;;;;5055288;28;20201;-67
2021/01/25 04:45:10;;;;;;;21.30;15.37;;;;;;;;;;5051201;28;20192;-68
2021/01/25 04:47:36;;;;;;;22.30;15.03;;;;;;;;;;5056380;28;20205;-68
2021/01/25 04:50:03;;;;;;;23.30;15.70;;;;;;;;;;5053261;28;20538;-68
2021/01/25 04:52:28;;;;;;;21.17;14.53;;;;;;;;;;5045008;28;20721;-68
2021/01/25 04:54:54;;;;;;;26.23;15.23;;;;;;;;;;5048901;28;20213;-66
2021/01/25 04:57:19;;;;;;;19.70;14.37;;;;;;;;;;5051099;28;20277;-66
2021/01/25 04:59:45;;;;;;;22.37;16.10;;;;;;;;;;5058078;28;20194;-68
2021/01/25 05:02:11;;;;;;;22.13;15.43;;;;;;;;;;5051867;28;20205;-66
2021/01/25 05:04:36;;;;;;;20.17;14.27;;;;;;;;;;5035139;28;20328;-68
2021/01/25 05:07:01;;;;;;;23.03;15.47;;;;;;;;;;5050432;28;20195;-67
2021/01/25 05:09:26;;;;;;;23.47;14.80;;;;;;;;;;5050811;28;20205;-69
2021/01/25 05:12:02;;;;;;;21.87;14.00;;;;;;;;;;5051575;28;20765;-69
2021/01/25 05:14:36;;;;;;;18.90;14.60;;;;;;;;;;5053159;28;20238;-68
2021/01/25 05:17:05;;;;;;;20.60;14.97;;;;;;;;;;5050288;28;20181;-68
2021/01/25 05:19:30;;;;;;;24.00;15.50;;;;;;;;;;5054893;28;20194;-68
2021/01/25 05:21:55;;;;;;;22.40;16.13;;;;;;;;;;5049109;28;21616;-68
2021/01/25 05:24:20;;;;;;;22.47;14.53;;;;;;;;;;5049595;28;20217;-69
2021/01/25 05:26:52;;;;;;;25.80;15.23;;;;;;;;;;5049855;28;20174;-68
2021/01/25 05:29:21;;;;;;;24.87;15.73;;;;;;;;;;5048631;28;20173;-68
2021/01/25 05:31:48;;;;;;;20.53;14.90;;;;;;;;;;5046272;28;20216;-68
2021/01/25 05:34:16;;;;;;;25.47;16.30;;;;;;;;;;5050722;28;20201;-68
2021/01/25 05:36:41;;;;;;;21.73;14.87;;;;;;;;;;5052243;28;20181;-67
2021/01/25 05:39:06;;;;;;;23.10;16.87;;;;;;;;;;5053683;28;20188;-69
2021/01/25 05:41:34;;;;;;;22.20;15.73;;;;;;;;;;5049598;28;20288;-68
2021/01/25 05:44:00;;;;;;;26.70;16.33;;;;;;;;;;5040254;28;20318;-68
2021/01/25 05:46:25;;;;;;;24.63;15.33;;;;;;;;;;5048571;28;20714;-68
2021/01/25 05:48:57;;;;;;;24.17;16.30;;;;;;;;;;5051862;28;20178;-68
2021/01/25 05:51:22;;;;;;;22.03;15.83;;;;;;;;;;5050933;28;20177;-68
2021/01/25 05:53:48;;;;;;;26.77;16.30;;;;;;;;;;5046482;28;20197;-68
2021/01/25 05:56:14;;;;;;;25.03;16.93;;;;;;;;;;5046257;28;20205;-68
2021/01/25 05:58:40;;;;;;;26.83;16.43;;;;;;;;;;5030338;28;20178;-68
2021/01/25 06:01:05;;;;;;;27.43;16.83;;;;;;;;;;5028454;28;20665;-68
2021/01/25 06:03:37;;;;;;;23.53;16.03;;;;;;;;;;5049011;28;20292;-67
2021/01/25 06:06:07;;;;;;;24.47;17.27;;;;;;;;;;5048669;28;20170;-68
2021/01/25 06:08:36;;;;;;;24.07;16.63;;;;;;;;;;5051811;28;20459;-69
2021/01/25 06:11:20;;;;;;;27.37;17.57;;;;;;;;;;5048922;28;20216;-68
2021/01/25 06:13:51;;;;;;;24.67;17.73;;;;;;;;;;5047273;28;20213;-68
2021/01/25 06:16:17;;;;;;;26.40;18.07;;;;;;;;;;5047053;28;20280;-68
2021/01/25 06:18:45;;;;;;;30.43;18.47;;;;;;;;;;5055476;28;20268;-68
2021/01/25 06:21:11;;;;;;;34.47;19.57;;;;;;;;;;5048239;28;20189;-69
2021/01/25 06:23:37;;;;;;;27.77;19.03;;;;;;;;;;5049691;28;20217;-68
2021/01/25 06:26:03;;;;;;;32.57;19.00;;;;;;;;;;5048738;28;20666;-67
2021/01/25 06:28:28;;;;;;;27.57;17.93;;;;;;;;;;5047987;28;20185;-68
2021/01/25 06:30:54;;;;;;;27.23;18.00;;;;;;;;;;5047509;28;20178;-68
2021/01/25 06:33:19;;;;;;;31.87;19.50;;;;;;;;;;5051077;28;20202;-68
2021/01/25 06:35:50;;;;;;;29.77;18.33;;;;;;;;;;5048832;28;20200;-68
2021/01/25 06:38:17;;;;;;;29.40;19.27;;;;;;;;;;5052416;28;20182;-68
2021/01/25 06:40:43;;;;;;;31.33;19.73;;;;;;;;;;5049785;28;20228;-69
2021/01/25 06:43:09;;;;;;;30.17;18.70;;;;;;;;;;5050434;28;20205;-68
2021/01/25 06:45:34;;;;;;;28.43;19.30;;;;;;;;;;5049007;28;20185;-68
2021/01/25 06:47:59;;;;;;;30.43;19.70;;;;;;;;;;5048409;28;20670;-69
2021/01/25 06:50:25;;;;;;;30.90;18.50;;;;;;;;;;5049137;28;20170;-68
2021/01/25 06:52:50;;;;;;;27.33;18.07;;;;;;;;;;5048719;28;20197;-68
2021/01/25 06:55:15;;;;;;;27.67;17.87;;;;;;;;;;5050234;28;20682;-68
2021/01/25 06:57:41;;;;;;;26.33;18.40;;;;;;;;;;5045715;28;20548;-68
2021/01/25 07:00:10;;;;;;;28.00;18.02;;;;;;;;;;5055733;28;21419;-68
2021/01/25 07:02:50;;;;;;;28.93;18.70;;;;;;;;;;5033979;28;20213;-68
2021/01/25 07:05:19;;;;;;;30.77;18.83;;;;;;;;;;5051130;28;20666;-67
2021/01/25 07:07:44;;;;;;;28.73;17.97;;;;;;;;;;5055796;28;20169;-68
2021/01/25 07:10:15;;;;;;;29.07;18.80;;;;;;;;;;5051791;28;20187;-68
2021/01/25 07:12:40;;;;;;;27.70;17.73;;;;;;;;;;5053829;28;20174;-68
2021/01/25 07:15:05;;;;;;;27.57;18.30;;;;;;;;;;5057739;28;20264;-67
2021/01/25 07:17:31;;;;;;;30.13;18.80;;;;;;;;;;5054600;28;20185;-68
2021/01/25 07:19:57;;;;;;;35.40;20.17;;;;;;;;;;5050459;28;20178;-68
2021/01/25 07:22:23;;;;;;;32.07;17.87;;;;;;;;;;5051696;28;20223;-68
2021/01/25 07:24:49;;;;;;;34.73;19.97;;;;;;;;;;5050005;28;20675;-68
2021/01/25 07:27:15;;;;;;;36.47;19.93;;;;;;;;;;5053373;28;20189;-68
2021/01/25 07:29:40;;;;;;;28.57;18.60;;;;;;;;;;5051482;28;20178;-68
2021/01/25 07:32:05;;;;;;;36.03;20.87;;;;;;;;;;5054433;28;20188;-68
2021/01/25 07:34:31;;;;;;;36.73;22.00;;;;;;;;;;5052267;28;20573;-68
2021/01/25 07:36:57;;;;;;;38.73;21.40;;;;;;;;;;5049450;28;20174;-68
2021/01/25 07:39:22;;;;;;;33.63;20.90;;;;;;;;;;5050003;28;20235;-68
2021/01/25 07:41:47;;;;;;;35.90;20.73;;;;;;;;;;5050478;28;20214;-68
2021/01/25 07:44:13;;;;;;;30.33;20.97;;;;;;;;;;5051667;28;20643;-67
2021/01/25 07:46:39;;;;;;;32.47;19.70;;;;;;;;;;5031360;28;20192;-68
2021/01/25 07:49:05;;;;;;;33.20;21.40;;;;;;;;;;5047536;28;20186;-67
2021/01/25 07:51:33;;;;;;;34.23;22.63;;;;;;;;;;5053523;28;20615;-68
2021/01/25 07:53:59;;;;;;;36.67;22.07;;;;;;;;;;5051768;28;20193;-69
2021/01/25 07:56:25;;;;;;;36.30;22.97;;;;;;;;;;5047458;28;20312;-68
2021/01/25 07:59:01;;;;;;;39.13;21.40;;;;;;;;;;5051565;28;20771;-68
2021/01/25 08:01:28;;;;;;;38.10;22.37;;;;;;;;;;5052543;28;20586;-68
2021/01/25 08:03:57;;;;;;;34.87;21.17;;;;;;;;;;5033803;28;20196;-67
2021/01/25 08:06:22;;;;;;;39.00;21.80;;;;;;;;;;5050767;28;20195;-68
2021/01/25 08:08:48;;;;;;;42.17;22.73;;;;;;;;;;5054430;28;20647;-68
2021/01/25 08:11:13;;;;;;;39.50;22.63;;;;;;;;;;5034435;28;20605;-68
2021/01/25 08:13:44;;;;;;;37.67;21.93;;;;;;;;;;5042903;28;20236;-68
2021/01/25 08:16:12;;;;;;;43.67;23.37;;;;;;;;;;5050192;28;20630;-68
2021/01/25 08:18:39;;;;;;;42.07;25.13;;;;;;;;;;5052758;28;20196;-68
2021/01/25 08:21:06;;;;;;;48.50;26.73;;;;;;;;;;5050436;28;20216;-68
2021/01/25 08:23:38;;;;;;;45.97;24.07;;;;;;;;;;5050083;28;20285;-69
2021/01/25 08:26:03;;;;;;;40.67;23.53;;;;;;;;;;5048642;28;20181;-68
2021/01/25 08:28:33;;;;;;;42.37;24.50;;;;;;;;;;5051611;28;20166;-68
2021/01/25 08:31:10;;;;;;;44.07;25.00;;;;;;;;;;5055085;28;20171;-69
2021/01/25 08:33:36;;;;;;;43.20;25.00;;;;;;;;;;5047713;28;20221;-68
2021/01/25 08:36:03;;;;;;;42.13;23.97;;;;;;;;;;5050529;28;20663;-68
2021/01/25 08:38:28;;;;;;;40.93;23.70;;;;;;;;;;5053338;28;20553;-68
2021/01/25 08:40:54;;;;;;;44.20;22.93;;;;;;;;;;5048940;28;20174;-69
2021/01/25 08:43:22;;;;;;;39.03;24.03;;;;;;;;;;5049707;28;20296;-68
2021/01/25 08:45:47;;;;;;;42.33;25.43;;;;;;;;;;5052152;28;20178;-69
2021/01/25 08:48:13;;;;;;;41.53;25.03;;;;;;;;;;5048875;28;20173;-68
2021/01/25 08:50:39;;;;;;;41.43;26.63;;;;;;;;;;5048936;28;20182;-69
2021/01/25 08:53:06;;;;;;;38.27;24.53;;;;;;;;;;5047985;28;20201;-68
2021/01/25 08:55:36;;;;;;;35.40;24.20;;;;;;;;;;5046174;28;20197;-69
2021/01/25 08:58:01;;;;;;;32.97;23.50;;;;;;;;;;5041611;28;20544;-68
2021/01/25 09:00:26;;;;;;;31.30;22.33;;;;;;;;;;5045493;28;20188;-69
2021/01/25 09:02:56;;;;;;;31.85;21.90;;;;;;;;;;5049334;28;20240;-68
2021/01/25 09:05:22;;;;;;;33.23;22.17;;;;;;;;;;5048815;28;20177;-68
2021/01/25 09:07:50;;;;;;;30.63;21.77;;;;;;;;;;5049282;28;20777;-69
2021/01/25 09:10:15;;;;;;;30.47;21.93;;;;;;;;;;5054699;28;20231;-69
2021/01/25 09:12:40;;;;;;;30.07;21.63;;;;;;;;;;5046177;28;20206;-69
2021/01/25 09:15:05;;;;;;;32.33;20.45;;;;;;;;;;5052857;28;20263;-68
2021/01/25 09:17:31;;;;;;;30.77;21.30;;;;;;;;;;5047476;28;20196;-69
2021/01/25 09:19:56;;;;;;;30.83;20.63;;;;;;;;;;5048399;28;20226;-69
2021/01/25 09:22:21;;;;;;;27.07;20.97;;;;;;;;;;5047640;28;20209;-69
2021/01/25 09:24:46;;;;;;;28.97;19.97;;;;;;;;;;5049138;28;20193;-69
2021/01/25 09:27:12;;;;;;;28.83;19.47;;;;;;;;;;5050105;28;20186;-69
2021/01/25 09:29:37;;;;;;;30.80;20.47;;;;;;;;;;5032264;28;20219;-69
2021/01/25 09:32:03;;;;;;;29.60;21.13;;;;;;;;;;5054140;28;20181;-69
2021/01/25 09:34:28;;;;;;;29.07;21.10;;;;;;;;;;5046649;28;20201;-69
2021/01/25 09:36:53;;;;;;;30.80;21.20;;;;;;;;;;5032715;28;20181;-69
2021/01/25 09:39:19;;;;;;;28.83;18.70;;;;;;;;;;5049227;28;20190;-69
2021/01/25 09:41:44;;;;;;;29.60;19.80;;;;;;;;;;5048620;28;20736;-69
2021/01/25 09:44:10;;;;;;;26.70;20.07;;;;;;;;;;5049730;28;20209;-69
2021/01/25 09:46:35;;;;;;;28.73;19.60;;;;;;;;;;5051482;28;20175;-69
2021/01/25 09:49:00;;;;;;;26.30;19.13;;;;;;;;;;5054094;28;20231;-69
2021/01/25 09:51:25;;;;;;;26.20;19.23;;;;;;;;;;5041859;28;20184;-69
2021/01/25 09:53:51;;;;;;;29.30;17.50;;;;;;;;;;5042273;28;20262;-69
2021/01/25 09:56:16;;;;;;;24.93;16.87;;;;;;;;;;5044571;28;20216;-69
2021/01/25 09:58:41;;;;;;;24.10;16.30;;;;;;;;;;5047929;28;20532;-68
2021/01/25 10:01:06;;;;;;;22.87;16.67;;;;;;;;;;5030295;28;20205;-69
2021/01/25 10:03:31;;;;;;;23.80;17.07;;;;;;;;;;5044274;28;20868;-69
2021/01/25 10:05:57;;;;;;;22.20;15.70;;;;;;;;;;5053374;28;20187;-70
2021/01/25 10:08:22;;;;;;;18.17;13.53;;;;;;;;;;5048497;28;20378;-69
2021/01/25 10:10:47;;;;;;;18.40;13.63;;;;;;;;;;5050745;28;20180;-69
2021/01/25 10:13:13;;;;;;;17.80;12.50;;;;;;;;;;5047982;28;20212;-69
2021/01/25 10:15:38;;;;;;;14.83;11.73;;;;;;;;;;5051029;28;20177;-69
2021/01/25 10:18:03;;;;;;;16.47;12.20;;;;;;;;;;5052191;28;20669;-69
2021/01/25 10:20:29;;;;;;;14.77;11.93;;;;;;;;;;5045191;28;20177;-69
2021/01/25 10:22:54;;;;;;;13.50;10.67;;;;;;;;;;5043143;28;20209;-69
2021/01/25 10:25:19;;;;;;;11.03;9.30;;;;;;;;;;5044421;28;20173;-69
2021/01/25 10:27:44;;;;;;;12.10;9.43;;;;;;;;;;5050011;28;20256;-70
2021/01/25 10:30:11;;;;;;;11.50;10.30;;;;;;;;;;5051477;28;20243;-69
2021/01/25 10:32:36;;;;;;;14.60;10.47;;;;;;;;;;5053562;28;20185;-69
2021/01/25 10:35:01;;;;;;;9.90;8.87;;;;;;;;;;5048959;28;20537;-69
2021/01/25 10:37:26;;;;;;;8.70;7.77;;;;;;;;;;5046198;28;20247;-70
2021/01/25 10:39:51;;;;;;;8.70;7.57;;;;;;;;;;5051029;28;20651;-69
2021/01/25 10:42:17;;;;;;;7.90;7.10;;;;;;;;;;5050198;28;20205;-69
2021/01/25 10:44:42;;;;;;;9.77;8.50;;;;;;;;;;5047061;28;20935;-70
2021/01/25 10:47:07;;;;;;;9.93;8.70;;;;;;;;;;5050445;28;20193;-69
2021/01/25 10:49:32;;;;;;;9.23;8.27;;;;;;;;;;5051109;28;20226;-70
2021/01/25 10:51:57;;;;;;;11.30;8.57;;;;;;;;;;5050623;28;20220;-70
2021/01/25 10:54:24;;;;;;;9.80;7.37;;;;;;;;;;5052140;28;20291;-68
2021/01/25 10:56:50;;;;;;;8.57;7.33;;;;;;;;;;5054196;28;20173;-68
2021/01/25 10:59:15;;;;;;;9.23;6.83;;;;;;;;;;5055346;28;20280;-70
2021/01/25 11:01:40;;;;;;;10.53;7.53;;;;;;;;;;5051852;28;20198;-70
2021/01/25 11:04:06;;;;;;;9.87;7.83;;;;;;;;;;5053380;28;20680;-67
2021/01/25 11:06:31;;;;;;;11.97;8.30;;;;;;;;;;5052857;28;20185;-69
2021/01/25 11:08:56;;;;;;;8.97;7.80;;;;;;;;;;5052018;28;20178;-66
2021/01/25 11:11:21;;;;;;;9.60;8.13;;;;;;;;;;5050448;28;20178;-70
2021/01/25 11:13:46;;;;;;;8.23;7.03;;;;;;;;;;5048886;28;20227;-67
2021/01/25 11:16:11;;;;;;;10.30;8.13;;;;;;;;;;5050087;28;20241;-67
2021/01/25 11:18:37;;;;;;;10.97;7.67;;;;;;;;;;5054300;28;20539;-67
2021/01/25 11:21:02;;;;;;;9.87;7.83;;;;;;;;;;5053070;28;20682;-67
2021/01/25 11:23:27;;;;;;;9.00;6.90;;;;;;;;;;5044106;28;20284;-69
2021/01/25 11:25:53;;;;;;;9.27;7.40;;;;;;;;;;5052916;28;20174;-67
2021/01/25 11:28:18;;;;;;;8.73;7.37;;;;;;;;;;5048890;28;20178;-69
2021/01/25 11:30:43;;;;;;;8.77;7.57;;;;;;;;;;5057045;28;20166;-67
2021/01/25 11:33:08;;;;;;;10.47;8.03;;;;;;;;;;5055554;28;20201;-68
2021/01/25 11:35:34;;;;;;;11.13;7.73;;;;;;;;;;5050379;28;20257;-68
2021/01/25 11:37:59;;;;;;;10.40;7.67;;;;;;;;;;5054952;28;20866;-67
2021/01/25 11:40:24;;;;;;;9.10;7.47;;;;;;;;;;5050484;28;20174;-67
2021/01/25 11:42:49;;;;;;;9.67;7.20;;;;;;;;;;5045178;28;20979;-68
2021/01/25 11:45:15;;;;;;;10.87;8.00;;;;;;;;;;5056179;28;20173;-67
2021/01/25 11:47:40;;;;;;;9.53;6.87;;;;;;;;;;5050686;28;20181;-68
2021/01/25 11:50:06;;;;;;;11.03;7.33;;;;;;;;;;5039397;28;20588;-67
2021/01/25 11:52:31;;;;;;;12.30;7.90;;;;;;;;;;5048743;28;20197;-67
2021/01/25 11:54:56;;;;;;;9.70;8.10;;;;;;;;;;5053091;28;20189;-68
2021/01/25 11:57:21;;;;;;;10.87;8.00;;;;;;;;;;5053576;28;20663;-69
2021/01/25 11:59:47;;;;;;;9.07;7.40;;;;;;;;;;5049744;28;20185;-68
2021/01/25 12:02:12;;;;;;;11.17;8.23;;;;;;;;;;5048976;28;20218;-67
2021/01/25 12:04:37;;;;;;;10.63;8.90;;;;;;;;;;5052684;28;20193;-67
2021/01/25 12:07:02;;;;;;;11.30;7.80;;;;;;;;;;5050271;28;20646;-69
2021/01/25 12:09:28;;;;;;;10.43;8.10;;;;;;;;;;5050544;28;20698;-67
2021/01/25 12:11:53;;;;;;;13.13;7.33;;;;;;;;;;5049399;28;20259;-70
2021/01/25 12:14:19;;;;;;;12.77;7.60;;;;;;;;;;5056099;28;20717;-69
2021/01/25 12:16:44;;;;;;;9.80;7.53;;;;;;;;;;5055073;28;20177;-70
2021/01/25 12:19:09;;;;;;;10.33;7.23;;;;;;;;;;5048606;28;20182;-69
2021/01/25 12:21:34;;;;;;;12.67;8.13;;;;;;;;;;5050559;28;20268;-70
2021/01/25 12:24:02;;;;;;;9.20;7.10;;;;;;;;;;5050986;28;20210;-67
2021/01/25 12:26:28;;;;;;;8.23;6.87;;;;;;;;;;5045043;28;20251;-68
2021/01/25 12:28:53;;;;;;;10.97;7.27;;;;;;;;;;5053237;28;20185;-67
2021/01/25 12:31:18;;;;;;;12.00;7.37;;;;;;;;;;5053973;28;20219;-69
2021/01/25 12:33:43;;;;;;;8.67;6.33;;;;;;;;;;5047622;28;20194;-69
2021/01/25 12:36:09;;;;;;;9.37;6.30;;;;;;;;;;5051866;28;20193;-69
2021/01/25 12:38:34;;;;;;;6.77;5.77;;;;;;;;;;5047117;28;20242;-70
2021/01/25 12:40:59;;;;;;;8.30;5.80;;;;;;;;;;5048712;28;20190;-69
2021/01/25 12:43:24;;;;;;;6.37;4.93;;;;;;;;;;5049742;28;20217;-69
2021/01/25 12:45:49;;;;;;;9.57;6.30;;;;;;;;;;5052145;28;20181;-69
2021/01/25 12:48:14;;;;;;;6.17;5.47;;;;;;;;;;5047359;28;20228;-69
2021/01/25 12:50:39;;;;;;;7.73;5.90;;;;;;;;;;5047706;28;20210;-69
2021/01/25 12:53:05;;;;;;;11.73;6.27;;;;;;;;;;5048839;28;20194;-69
2021/01/25 12:55:30;;;;;;;9.60;5.83;;;;;;;;;;5047669;28;20651;-69
2021/01/25 12:57:55;;;;;;;7.03;5.00;;;;;;;;;;5046153;28;20563;-69
2021/01/25 13:00:22;;;;;;;10.27;6.50;;;;;;;;;;5031850;28;20186;-69
2021/01/25 13:02:48;;;;;;;7.53;5.40;;;;;;;;;;5055727;28;20205;-69
2021/01/25 13:05:13;;;;;;;7.10;5.60;;;;;;;;;;5048464;28;20186;-68
2021/01/25 13:07:39;;;;;;;10.43;6.40;;;;;;;;;;5052899;28;20173;-70
2021/01/25 13:10:04;;;;;;;9.00;6.30;;;;;;;;;;5044150;28;20668;-68
2021/01/25 13:12:32;;;;;;;9.70;7.20;;;;;;;;;;5046533;28;20173;-69
2021/01/25 13:14:57;;;;;;;11.20;7.23;;;;;;;;;;5045899;28;20178;-69
2021/01/25 13:17:28;;;;;;;9.73;7.37;;;;;;;;;;5101457;27;20546;-69
2021/01/25 13:19:53;;;;;;;10.07;6.90;;;;;;;;;;5097804;28;20550;-69
2021/01/25 13:22:19;;;;;;;9.20;6.63;;;;;;;;;;5098823;28;20202;-69
2021/01/25 13:24:44;;;;;;;8.07;6.10;;;;;;;;;;5102408;28;20744;-69
2021/01/25 13:27:09;;;;;;;9.33;7.13;;;;;;;;;;5099751;28;20176;-69
2021/01/25 13:29:34;;;;;;;12.45;8.75;;;;;;;;;;5098957;28;20229;-68
2021/01/25 13:31:59;;;;;;;12.57;8.80;;;;;;;;;;5098813;28;20184;-69
2021/01/25 13:34:25;;;;;;;11.00;8.73;;;;;;;;;;5092963;28;20212;-68
2021/01/25 13:36:50;;;;;;;13.57;7.97;;;;;;;;;;5092665;28;20223;-69
2021/01/25 13:39:15;;;;;;;14.10;8.47;;;;;;;;;;5098982;28;20676;-68
2021/01/25 13:41:40;;;;;;;9.80;7.53;;;;;;;;;;5092414;28;20230;-69
2021/01/25 13:44:05;;;;;;;9.57;5.77;;;;;;;;;;5097976;28;20223;-68
2021/01/25 13:46:30;;;;;;;5.93;3.10;;;;;;;;;;5095638;28;20176;-68
2021/01/25 13:48:56;;;;;;;6.50;2.20;;;;;;;;;;5099055;28;20707;-69
2021/01/25 13:51:21;;;;;;;4.40;2.20;;;;;;;;;;5094533;28;20186;-68
2021/01/25 13:53:46;;;;;;;2.90;1.70;;;;;;;;;;5089516;28;20279;-68
2021/01/25 13:56:11;;;;;;;3.27;1.50;;;;;;;;;;5094280;28;20203;-68
2021/01/25 13:58:36;;;;;;;2.30;1.30;;;;;;;;;;5105189;28;20554;-68
2021/01/25 14:01:02;;;;;;;1.70;1.00;;;;;;;;;;5096555;28;20591;-69
2021/01/25 14:03:27;;;;;;;2.43;0.90;;;;;;;;;;5093868;28;20191;-68
2021/01/25 14:05:53;;;;;;;3.40;1.00;;;;;;;;;;5096198;28;20187;-69
2021/01/25 14:08:19;;;;;;;4.67;1.10;;;;;;;;;;5093020;28;20245;-69
2021/01/25 14:10:49;;;;;;;1.47;0.90;;;;;;;;;;5092793;28;20267;-69
2021/01/25 14:13:14;;;;;;;2.27;0.93;;;;;;;;;;5098244;28;20196;-69
2021/01/25 14:15:39;;;;;;;6.00;1.70;;;;;;;;;;5089217;28;20676;-68